createdAt,value
2019-05-05T00:00:37.543Z,970.71
2019-05-05T00:01:37.566Z,970.69
2019-05-05T00:02:37.602Z,970.71
2019-05-05T00:03:37.523Z,970.71
2019-05-05T00:04:37.519Z,970.70
2019-05-05T00:05:37.519Z,970.72
2019-05-05T00:06:37.533Z,970.72
2019-05-05T00:07:38.150Z,970.72
2019-05-05T00:08:37.493Z,970.73
2019-05-05T00:09:37.491Z,970.78
2019-05-05T00:10:37.508Z,970.77
2019-05-05T00:11:37.479Z,970.82
2019-05-05T00:12:37.471Z,970.79
2019-05-05T00:13:37.467Z,970.84
2019-05-05T00:14:37.462Z,970.80
2019-05-05T00:15:37.485Z,970.85
2019-05-05T00:16:38.211Z,970.87
2019-05-05T00:17:37.447Z,970.88
2019-05-05T00:18:37.438Z,970.89
2019-05-05T00:19:37.616Z,970.89
2019-05-05T00:20:37.427Z,970.88
2019-05-05T00:21:37.447Z,970.88
2019-05-05T00:22:37.415Z,970.88
2019-05-05T00:23:37.411Z,970.92
2019-05-05T00:24:37.404Z,970.89
2019-05-05T00:25:37.405Z,970.85
2019-05-05T00:26:37.425Z,970.89
2019-05-05T00:27:37.387Z,970.91
2019-05-05T00:28:37.384Z,970.92
2019-05-05T00:29:37.380Z,970.97
2019-05-05T00:30:37.368Z,970.95
2019-05-05T00:31:38.572Z,971.01
2019-05-05T00:32:37.366Z,971.04
2019-05-05T00:33:37.349Z,971.08
2019-05-05T00:34:37.372Z,971.08
2019-05-05T00:35:37.335Z,971.08
2019-05-05T00:36:38.079Z,971.11
2019-05-05T00:37:37.355Z,971.10
2019-05-05T00:38:37.320Z,971.11
2019-05-05T00:39:37.312Z,971.14
2019-05-05T00:40:37.313Z,971.15
2019-05-05T00:41:37.304Z,971.15
2019-05-05T00:42:37.332Z,971.15
2019-05-05T00:43:37.502Z,971.17
2019-05-05T00:44:37.287Z,971.20
2019-05-05T00:45:37.280Z,971.25
2019-05-05T00:46:37.278Z,971.25
2019-05-05T00:47:37.762Z,971.29
2019-05-05T00:48:37.265Z,971.30
2019-05-05T00:49:44.077Z,971.27
2019-05-05T00:50:37.250Z,971.33
2019-05-05T00:51:37.252Z,971.32
2019-05-05T00:52:37.274Z,971.35
2019-05-05T00:53:37.235Z,971.37
2019-05-05T00:54:37.227Z,971.37
2019-05-05T00:55:37.223Z,971.37
2019-05-05T00:56:37.220Z,971.34
2019-05-05T00:57:37.242Z,971.38
2019-05-05T00:58:37.206Z,971.38
2019-05-05T00:59:37.209Z,971.35
2019-05-05T01:00:37.195Z,971.36
2019-05-05T01:01:37.191Z,971.39
2019-05-05T01:02:37.210Z,971.39
2019-05-05T01:03:37.183Z,971.36
2019-05-05T01:04:37.175Z,971.39
2019-05-05T01:05:37.167Z,971.38
2019-05-05T01:06:37.162Z,971.41
2019-05-05T01:07:37.187Z,971.40
2019-05-05T01:08:37.148Z,971.44
2019-05-05T01:09:37.143Z,971.42
2019-05-05T01:10:37.136Z,971.46
2019-05-05T01:11:37.133Z,971.46
2019-05-05T01:12:37.159Z,971.42
2019-05-05T01:13:37.125Z,971.46
2019-05-05T01:14:37.122Z,971.45
2019-05-05T01:15:37.147Z,971.46
2019-05-05T01:16:37.107Z,971.49
2019-05-05T01:17:37.105Z,971.50
2019-05-05T01:18:37.122Z,971.49
2019-05-05T01:19:37.093Z,971.50
2019-05-05T01:20:37.090Z,971.51
2019-05-05T01:21:37.078Z,971.53
2019-05-05T01:22:37.079Z,971.52
2019-05-05T01:23:37.094Z,971.58
2019-05-05T01:24:37.066Z,971.59
2019-05-05T01:25:37.064Z,971.57
2019-05-05T01:26:37.054Z,971.60
2019-05-05T01:27:37.050Z,971.59
2019-05-05T01:28:37.070Z,971.65
2019-05-05T01:29:37.039Z,971.67
2019-05-05T01:30:37.030Z,971.66
2019-05-05T01:31:37.024Z,971.67
2019-05-05T01:32:37.022Z,971.70
2019-05-05T01:33:37.051Z,971.69
2019-05-05T01:34:37.012Z,971.74
2019-05-05T01:35:37.002Z,971.73
2019-05-05T01:36:36.998Z,971.75
2019-05-05T01:37:36.991Z,971.73
2019-05-05T01:38:37.018Z,971.74
2019-05-05T01:39:36.986Z,971.76
2019-05-05T01:40:36.978Z,971.75
2019-05-05T01:41:36.974Z,971.79
2019-05-05T01:42:36.966Z,971.78
2019-05-05T01:43:36.996Z,971.81
2019-05-05T01:44:36.962Z,971.85
2019-05-05T01:45:36.960Z,971.81
2019-05-05T01:46:36.971Z,971.81
2019-05-05T01:47:36.942Z,971.80
2019-05-05T01:48:36.935Z,971.79
2019-05-05T01:49:36.964Z,971.80
2019-05-05T01:50:36.927Z,971.78
2019-05-05T01:51:36.924Z,971.83
2019-05-05T01:52:36.918Z,971.79
2019-05-05T01:53:36.910Z,971.80
2019-05-05T01:54:36.933Z,971.81
2019-05-05T01:55:36.899Z,971.83
2019-05-05T01:56:36.893Z,971.79
2019-05-05T01:57:36.890Z,971.79
2019-05-05T01:58:36.884Z,971.83
2019-05-05T01:59:36.907Z,971.79
2019-05-05T02:00:36.878Z,971.81
2019-05-05T02:01:36.864Z,971.85
2019-05-05T02:02:36.866Z,971.81
2019-05-05T02:03:36.857Z,971.87
2019-05-05T02:04:36.879Z,971.89
2019-05-05T02:05:36.846Z,971.88
2019-05-05T02:06:36.841Z,971.87
2019-05-05T02:07:36.838Z,971.96
2019-05-05T02:08:36.838Z,971.96
2019-05-05T02:09:36.855Z,972.00
2019-05-05T02:10:36.822Z,972.02
2019-05-05T02:11:36.814Z,972.06
2019-05-05T02:12:36.810Z,972.08
2019-05-05T02:13:36.806Z,972.10
2019-05-05T02:14:36.825Z,972.13
2019-05-05T02:15:36.797Z,972.10
2019-05-05T02:16:36.789Z,972.15
2019-05-05T02:17:36.781Z,972.17
2019-05-05T02:18:36.777Z,972.18
2019-05-05T02:19:36.798Z,972.18
2019-05-05T02:20:36.769Z,972.19
2019-05-05T02:21:36.758Z,972.18
2019-05-05T02:22:36.755Z,972.14
2019-05-05T02:23:36.747Z,972.13
2019-05-05T02:24:36.769Z,972.12
2019-05-05T02:25:36.734Z,972.09
2019-05-05T02:26:36.742Z,972.12
2019-05-05T02:27:36.725Z,972.11
2019-05-05T02:28:36.724Z,972.13
2019-05-05T02:29:36.744Z,972.15
2019-05-05T02:30:36.719Z,972.15
2019-05-05T02:31:36.711Z,972.16
2019-05-05T02:32:36.700Z,972.17
2019-05-05T02:33:36.695Z,972.21
2019-05-05T02:34:36.718Z,972.27
2019-05-05T02:35:36.690Z,972.26
2019-05-05T02:36:36.675Z,972.29
2019-05-05T02:37:36.671Z,972.28
2019-05-05T02:38:36.663Z,972.31
2019-05-05T02:39:39.306Z,972.32
2019-05-05T02:40:36.659Z,972.33
2019-05-05T02:41:36.652Z,972.32
2019-05-05T02:42:36.646Z,972.33
2019-05-05T02:43:36.639Z,972.36
2019-05-05T02:44:36.663Z,972.34
2019-05-05T02:45:36.630Z,972.39
2019-05-05T02:46:36.625Z,972.39
2019-05-05T02:47:36.619Z,972.38
2019-05-05T02:48:36.609Z,972.43
2019-05-05T02:49:36.629Z,972.45
2019-05-05T02:50:51.104Z,972.43
2019-05-05T02:51:36.595Z,972.49
2019-05-05T02:52:36.589Z,972.49
2019-05-05T02:53:36.582Z,972.49
2019-05-05T02:54:36.607Z,972.46
2019-05-05T02:55:36.574Z,972.52
2019-05-05T02:56:36.579Z,972.53
2019-05-05T02:57:36.566Z,972.52
2019-05-05T02:58:36.582Z,972.52
2019-05-05T02:59:36.553Z,972.51
2019-05-05T03:00:36.545Z,972.56
2019-05-05T03:01:36.538Z,972.51
2019-05-05T03:02:36.531Z,972.51
2019-05-05T03:03:36.562Z,972.53
2019-05-05T03:04:36.521Z,972.57
2019-05-05T03:05:36.516Z,972.53
2019-05-05T03:06:36.514Z,972.55
2019-05-05T03:07:36.505Z,972.56
2019-05-05T03:08:36.529Z,972.60
2019-05-05T03:09:36.493Z,972.61
2019-05-05T03:10:36.490Z,972.59
2019-05-05T03:11:36.487Z,972.60
2019-05-05T03:12:36.478Z,972.61
2019-05-05T03:13:36.498Z,972.59
2019-05-05T03:14:36.468Z,972.60
2019-05-05T03:15:36.579Z,972.60
2019-05-05T03:16:36.454Z,972.64
2019-05-05T03:17:36.449Z,972.64
2019-05-05T03:18:36.478Z,972.63
2019-05-05T03:19:36.439Z,972.62
2019-05-05T03:20:36.433Z,972.63
2019-05-05T03:21:36.430Z,972.65
2019-05-05T03:22:36.422Z,972.66
2019-05-05T03:23:36.446Z,972.68
2019-05-05T03:24:36.441Z,972.71
2019-05-05T03:25:36.405Z,972.74
2019-05-05T03:26:36.402Z,972.73
2019-05-05T03:27:36.390Z,972.72
2019-05-05T03:28:36.403Z,972.74
2019-05-05T03:29:36.410Z,972.73
2019-05-05T03:30:36.382Z,972.75
2019-05-05T03:31:36.374Z,972.75
2019-05-05T03:32:36.413Z,972.75
2019-05-05T03:33:36.354Z,972.81
2019-05-05T03:34:36.381Z,972.76
2019-05-05T03:35:36.349Z,972.78
2019-05-05T03:36:36.349Z,972.82
2019-05-05T03:37:36.338Z,972.81
2019-05-05T03:38:36.330Z,972.81
2019-05-05T03:39:36.361Z,972.85
2019-05-05T03:40:36.321Z,972.86
2019-05-05T03:41:36.314Z,972.85
2019-05-05T03:42:36.310Z,972.86
2019-05-05T03:43:36.307Z,972.82
2019-05-05T03:44:36.327Z,972.88
2019-05-05T03:45:36.294Z,972.86
2019-05-05T03:46:36.289Z,972.88
2019-05-05T03:47:36.281Z,972.86
2019-05-05T03:48:36.273Z,972.87
2019-05-05T03:49:36.298Z,972.84
2019-05-05T03:50:36.267Z,972.87
2019-05-05T03:51:36.262Z,972.91
2019-05-05T03:52:36.254Z,972.88
2019-05-05T03:53:36.246Z,972.88
2019-05-05T03:54:36.272Z,972.89
2019-05-05T03:55:36.233Z,972.90
2019-05-05T03:56:36.230Z,972.87
2019-05-05T03:57:36.225Z,972.92
2019-05-05T03:58:36.226Z,972.90
2019-05-05T03:59:36.237Z,972.90
2019-05-05T04:00:36.239Z,972.88
2019-05-05T04:01:36.200Z,972.87
2019-05-05T04:02:36.197Z,972.89
2019-05-05T04:03:36.189Z,972.87
2019-05-05T04:04:36.185Z,972.88
2019-05-05T04:05:36.205Z,972.88
2019-05-05T04:06:36.182Z,972.90
2019-05-05T04:07:36.171Z,972.88
2019-05-05T04:08:36.165Z,972.87
2019-05-05T04:09:36.157Z,972.90
2019-05-05T04:10:36.174Z,972.86
2019-05-05T04:11:36.145Z,972.90
2019-05-05T04:12:36.138Z,972.89
2019-05-05T04:13:36.135Z,972.91
2019-05-05T04:14:36.130Z,972.93
2019-05-05T04:15:36.157Z,972.96
2019-05-05T04:16:36.118Z,972.97
2019-05-05T04:17:36.114Z,972.97
2019-05-05T04:18:36.116Z,972.98
2019-05-05T04:19:36.134Z,972.99
2019-05-05T04:20:36.132Z,972.96
2019-05-05T04:21:36.869Z,972.98
2019-05-05T04:22:36.085Z,972.94
2019-05-05T04:23:36.074Z,972.98
2019-05-05T04:24:36.073Z,972.99
2019-05-05T04:25:36.094Z,973.03
2019-05-05T04:26:36.061Z,973.02
2019-05-05T04:27:36.053Z,973.01
2019-05-05T04:28:36.048Z,973.04
2019-05-05T04:29:36.040Z,973.08
2019-05-05T04:30:36.069Z,973.08
2019-05-05T04:31:36.035Z,973.12
2019-05-05T04:32:36.029Z,973.12
2019-05-05T04:33:36.021Z,973.15
2019-05-05T04:34:36.017Z,973.18
2019-05-05T04:35:36.046Z,973.10
2019-05-05T04:36:36.008Z,973.17
2019-05-05T04:37:36.004Z,973.16
2019-05-05T04:38:35.996Z,973.20
2019-05-05T04:39:35.988Z,973.20
2019-05-05T04:40:36.018Z,973.21
2019-05-05T04:41:35.974Z,973.20
2019-05-05T04:42:35.969Z,973.19
2019-05-05T04:43:35.968Z,973.23
2019-05-05T04:44:35.961Z,973.23
2019-05-05T04:45:35.959Z,973.22
2019-05-05T04:46:35.978Z,973.25
2019-05-05T04:47:35.947Z,973.24
2019-05-05T04:48:35.940Z,973.28
2019-05-05T04:49:35.934Z,973.28
2019-05-05T04:50:35.930Z,973.26
2019-05-05T04:51:46.921Z,973.28
2019-05-05T04:52:35.928Z,973.33
2019-05-05T04:53:35.908Z,973.37
2019-05-05T04:54:35.916Z,973.34
2019-05-05T04:55:35.901Z,973.40
2019-05-05T04:56:35.921Z,973.40
2019-05-05T04:57:35.889Z,973.42
2019-05-05T04:58:35.885Z,973.41
2019-05-05T04:59:35.880Z,973.43
2019-05-05T05:00:35.877Z,973.48
2019-05-05T05:01:35.893Z,973.45
2019-05-05T05:02:35.864Z,973.49
2019-05-05T05:03:35.858Z,973.53
2019-05-05T05:04:35.853Z,973.52
2019-05-05T05:05:35.846Z,973.58
2019-05-05T05:06:35.868Z,973.57
2019-05-05T05:07:35.838Z,973.59
2019-05-05T05:08:35.828Z,973.61
2019-05-05T05:09:35.824Z,973.62
2019-05-05T05:10:35.820Z,973.65
2019-05-05T05:11:35.840Z,973.66
2019-05-05T05:12:35.808Z,973.64
2019-05-05T05:13:35.801Z,973.67
2019-05-05T05:14:35.796Z,973.63
2019-05-05T05:15:35.792Z,973.66
2019-05-05T05:16:35.814Z,973.62
2019-05-05T05:17:36.566Z,973.62
2019-05-05T05:18:35.776Z,973.61
2019-05-05T05:19:37.384Z,973.62
2019-05-05T05:20:38.823Z,973.61
2019-05-05T05:21:35.788Z,973.59
2019-05-05T05:22:35.753Z,973.57
2019-05-05T05:23:35.752Z,973.62
2019-05-05T05:24:35.749Z,973.62
2019-05-05T05:25:36.024Z,973.66
2019-05-05T05:26:35.760Z,973.65
2019-05-05T05:27:35.731Z,973.70
2019-05-05T05:28:37.568Z,973.76
2019-05-05T05:29:35.719Z,973.74
2019-05-05T05:30:36.770Z,973.77
2019-05-05T05:31:35.741Z,973.77
2019-05-05T05:32:35.704Z,973.77
2019-05-05T05:33:35.716Z,973.80
2019-05-05T05:34:35.699Z,973.81
2019-05-05T05:35:35.692Z,973.83
2019-05-05T05:36:36.325Z,973.91
2019-05-05T05:37:35.680Z,973.86
2019-05-05T05:38:35.677Z,973.94
2019-05-05T05:39:35.669Z,973.98
2019-05-05T05:40:35.668Z,973.96
2019-05-05T05:41:35.664Z,973.96
2019-05-05T05:42:38.566Z,974.00
2019-05-05T05:43:36.596Z,973.98
2019-05-05T05:44:36.573Z,974.02
2019-05-05T05:45:35.645Z,974.04
2019-05-05T05:46:35.644Z,974.03
2019-05-05T05:47:35.655Z,974.03
2019-05-05T05:48:35.632Z,974.03
2019-05-05T05:49:35.627Z,974.07
2019-05-05T05:50:35.620Z,974.04
2019-05-05T05:51:35.645Z,974.05
2019-05-05T05:52:35.640Z,974.00
2019-05-05T05:53:35.606Z,973.99
2019-05-05T05:54:37.566Z,973.96
2019-05-05T05:55:35.599Z,973.98
2019-05-05T05:56:35.597Z,973.99
2019-05-05T05:57:35.686Z,973.99
2019-05-05T05:58:35.584Z,974.00
2019-05-05T05:59:35.580Z,974.01
2019-05-05T06:00:35.576Z,973.99
2019-05-05T06:01:35.576Z,973.95
2019-05-05T06:02:35.593Z,973.94
2019-05-05T06:03:35.563Z,973.98
2019-05-05T06:04:35.566Z,973.94
2019-05-05T06:05:35.557Z,973.99
2019-05-05T06:06:35.582Z,974.04
2019-05-05T06:07:35.576Z,974.04
2019-05-05T06:08:35.551Z,974.06
2019-05-05T06:09:35.539Z,974.04
2019-05-05T06:10:35.536Z,974.04
2019-05-05T06:11:35.532Z,974.09
2019-05-05T06:12:35.558Z,974.06
2019-05-05T06:13:35.530Z,974.12
2019-05-05T06:14:35.523Z,974.13
2019-05-05T06:15:35.517Z,974.10
2019-05-05T06:16:35.518Z,974.12
2019-05-05T06:17:35.529Z,974.16
2019-05-05T06:18:35.506Z,974.18
2019-05-05T06:19:35.500Z,974.14
2019-05-05T06:20:35.496Z,974.18
2019-05-05T06:21:35.516Z,974.21
2019-05-05T06:22:35.516Z,974.25
2019-05-05T06:23:35.486Z,974.22
2019-05-05T06:24:35.480Z,974.26
2019-05-05T06:25:37.945Z,974.29
2019-05-05T06:26:35.504Z,974.28
2019-05-05T06:27:35.466Z,974.31
2019-05-05T06:28:35.523Z,974.32
2019-05-05T06:29:35.468Z,974.29
2019-05-05T06:30:35.458Z,974.30
2019-05-05T06:31:35.487Z,974.39
2019-05-05T06:32:35.452Z,974.38
2019-05-05T06:33:35.450Z,974.38
2019-05-05T06:34:35.445Z,974.42
2019-05-05T06:35:35.445Z,974.41
2019-05-05T06:36:35.472Z,974.40
2019-05-05T06:37:35.436Z,974.44
2019-05-05T06:38:35.431Z,974.40
2019-05-05T06:39:35.435Z,974.39
2019-05-05T06:40:35.428Z,974.40
2019-05-05T06:41:35.450Z,974.41
2019-05-05T06:42:35.420Z,974.47
2019-05-05T06:43:35.420Z,974.53
2019-05-05T06:44:35.416Z,974.53
2019-05-05T06:45:35.413Z,974.56
2019-05-05T06:46:35.432Z,974.60
2019-05-05T06:47:35.409Z,974.60
2019-05-05T06:48:35.433Z,974.60
2019-05-05T06:49:35.400Z,974.62
2019-05-05T06:50:35.396Z,974.61
2019-05-05T06:51:35.400Z,974.66
2019-05-05T06:52:43.834Z,974.71
2019-05-05T06:53:35.388Z,974.73
2019-05-05T06:54:35.381Z,974.77
2019-05-05T06:55:35.383Z,974.83
2019-05-05T06:56:35.444Z,974.83
2019-05-05T06:57:35.380Z,974.92
2019-05-05T06:58:35.402Z,975.01
2019-05-05T06:59:35.372Z,975.12
2019-05-05T07:00:35.370Z,975.11
2019-05-05T07:01:35.400Z,975.02
2019-05-05T07:02:35.369Z,975.05
2019-05-05T07:03:35.387Z,975.00
2019-05-05T07:04:35.371Z,975.11
2019-05-05T07:05:35.364Z,975.09
2019-05-05T07:06:35.359Z,974.90
2019-05-05T07:07:35.385Z,975.02
2019-05-05T07:08:35.363Z,974.82
2019-05-05T07:09:35.356Z,974.66
2019-05-05T07:10:35.368Z,974.84
2019-05-05T07:11:35.357Z,974.65
2019-05-05T07:12:35.385Z,974.80
2019-05-05T07:13:35.349Z,974.70
2019-05-05T07:14:35.355Z,974.63
2019-05-05T07:15:35.348Z,974.71
2019-05-05T07:16:35.344Z,974.66
2019-05-05T07:17:35.383Z,974.56
2019-05-05T07:18:35.344Z,974.60
2019-05-05T07:19:35.345Z,974.68
2019-05-05T07:20:35.345Z,974.62
2019-05-05T07:21:35.342Z,974.59
2019-05-05T07:22:35.375Z,974.59
2019-05-05T07:23:35.338Z,974.56
2019-05-05T07:24:35.338Z,974.50
2019-05-05T07:25:42.700Z,974.54
2019-05-05T07:26:35.337Z,974.54
2019-05-05T07:27:35.359Z,974.59
2019-05-05T07:28:35.345Z,974.57
2019-05-05T07:29:35.325Z,974.60
2019-05-05T07:30:35.328Z,974.66
2019-05-05T07:31:35.335Z,974.64
2019-05-05T07:32:35.353Z,974.67
2019-05-05T07:33:35.340Z,974.73
2019-05-05T07:34:35.320Z,974.71
2019-05-05T07:35:35.320Z,974.83
2019-05-05T07:36:35.319Z,974.87
2019-05-05T07:37:35.339Z,974.89
2019-05-05T07:38:35.327Z,974.93
2019-05-05T07:39:35.316Z,974.99
2019-05-05T07:40:35.316Z,975.08
2019-05-05T07:41:35.310Z,975.12
2019-05-05T07:42:35.335Z,975.25
2019-05-05T07:43:35.309Z,975.21
2019-05-05T07:44:35.302Z,975.07
2019-05-05T07:45:35.300Z,975.08
2019-05-05T07:46:35.301Z,975.25
2019-05-05T07:47:35.332Z,975.09
2019-05-05T07:48:35.303Z,975.06
2019-05-05T07:49:35.297Z,975.05
2019-05-05T07:50:35.946Z,975.21
2019-05-05T07:51:35.292Z,975.14
2019-05-05T07:52:35.326Z,975.14
2019-05-05T07:53:35.301Z,975.21
2019-05-05T07:54:35.330Z,975.31
2019-05-05T07:55:35.310Z,975.39
2019-05-05T07:56:35.294Z,975.35
2019-05-05T07:57:35.315Z,975.32
2019-05-05T07:58:35.316Z,975.34
2019-05-05T07:59:35.285Z,975.43
2019-05-05T08:00:35.289Z,975.38
2019-05-05T08:01:35.283Z,975.54
2019-05-05T08:02:35.288Z,975.47
2019-05-05T08:03:35.322Z,975.55
2019-05-05T08:04:35.287Z,975.50
2019-05-05T08:05:35.283Z,975.40
2019-05-05T08:06:35.287Z,975.67
2019-05-05T08:07:35.308Z,975.57
2019-05-05T08:08:35.307Z,975.48
2019-05-05T08:09:35.276Z,975.73
2019-05-05T08:10:35.277Z,975.75
2019-05-05T08:11:35.281Z,975.67
2019-05-05T08:12:35.280Z,975.68
2019-05-05T08:13:35.314Z,975.63
2019-05-05T08:14:35.281Z,975.68
2019-05-05T08:15:35.282Z,975.66
2019-05-05T08:16:35.287Z,975.70
2019-05-05T08:17:35.283Z,975.72
2019-05-05T08:18:35.326Z,975.68
2019-05-05T08:19:35.284Z,975.65
2019-05-05T08:20:35.314Z,975.64
2019-05-05T08:21:35.302Z,975.56
2019-05-05T08:22:35.309Z,975.64
2019-05-05T08:23:35.473Z,975.55
2019-05-05T08:24:35.350Z,975.70
2019-05-05T08:25:40.007Z,975.63
2019-05-05T08:26:35.328Z,975.61
2019-05-05T08:27:35.295Z,975.50
2019-05-05T08:28:35.317Z,975.60
2019-05-05T08:29:35.296Z,975.60
2019-05-05T08:30:35.302Z,975.56
2019-05-05T08:31:35.312Z,975.52
2019-05-05T08:32:35.724Z,975.59
2019-05-05T08:33:35.321Z,975.61
2019-05-05T08:34:35.291Z,975.60
2019-05-05T08:35:35.306Z,975.62
2019-05-05T08:36:35.292Z,975.54
2019-05-05T08:37:35.316Z,975.65
2019-05-05T08:38:35.333Z,975.66
2019-05-05T08:39:35.296Z,975.60
2019-05-05T08:40:35.301Z,975.61
2019-05-05T08:41:35.304Z,975.57
2019-05-05T08:42:35.300Z,975.57
2019-05-05T08:43:35.351Z,975.64
2019-05-05T08:44:35.335Z,975.66
2019-05-05T08:45:35.367Z,975.69
2019-05-05T08:46:35.312Z,975.69
2019-05-05T08:47:35.289Z,975.68
2019-05-05T08:48:35.324Z,975.73
2019-05-05T08:49:35.285Z,975.74
2019-05-05T08:50:35.287Z,975.71
2019-05-05T08:51:35.287Z,975.74
2019-05-05T08:52:35.316Z,975.82
2019-05-05T08:53:44.989Z,975.81
2019-05-05T08:54:35.288Z,975.79
2019-05-05T08:55:35.286Z,975.78
2019-05-05T08:56:35.297Z,975.77
2019-05-05T08:57:35.336Z,975.76
2019-05-05T08:58:35.320Z,975.79
2019-05-05T08:59:35.292Z,975.81
2019-05-05T09:00:35.290Z,975.81
2019-05-05T09:01:35.324Z,975.72
2019-05-05T09:02:36.165Z,975.82
2019-05-05T09:03:35.332Z,975.86
2019-05-05T09:04:35.308Z,975.89
2019-05-05T09:05:35.290Z,975.79
2019-05-05T09:06:37.778Z,975.89
2019-05-05T09:07:35.291Z,976.13
2019-05-05T09:08:35.314Z,976.20
2019-05-05T09:09:35.289Z,976.24
2019-05-05T09:10:35.283Z,976.26
2019-05-05T09:11:35.284Z,976.08
2019-05-05T09:12:35.288Z,976.26
2019-05-05T09:13:35.319Z,976.27
2019-05-05T09:14:35.309Z,976.11
2019-05-05T09:15:37.602Z,976.12
2019-05-05T09:16:35.301Z,976.09
2019-05-05T09:17:35.296Z,976.30
2019-05-05T09:18:35.351Z,976.30
2019-05-05T09:19:35.314Z,976.31
2019-05-05T09:20:35.313Z,976.32
2019-05-05T09:21:35.346Z,976.20
2019-05-05T09:22:35.323Z,976.10
2019-05-05T09:23:35.347Z,976.04
2019-05-05T09:24:35.477Z,976.03
2019-05-05T09:25:35.356Z,976.02
2019-05-05T09:26:35.396Z,976.01
2019-05-05T09:27:35.342Z,976.00
2019-05-05T09:28:35.352Z,975.97
2019-05-05T09:29:35.350Z,975.97
2019-05-05T09:30:35.406Z,975.95
2019-05-05T09:31:35.364Z,975.98
2019-05-05T09:32:35.365Z,975.93
2019-05-05T09:33:35.479Z,975.90
2019-05-05T09:34:37.590Z,975.96
2019-05-05T09:35:35.594Z,975.96
2019-05-05T09:36:35.375Z,975.98
2019-05-05T09:37:35.419Z,975.96
2019-05-05T09:38:35.383Z,975.94
2019-05-05T09:39:38.096Z,975.94
2019-05-05T09:40:35.387Z,975.96
2019-05-05T09:41:35.419Z,975.96
2019-05-05T09:42:35.396Z,975.96
2019-05-05T09:43:36.160Z,975.95
2019-05-05T09:44:35.438Z,975.96
2019-05-05T09:45:36.442Z,975.97
2019-05-05T09:46:35.474Z,975.98
2019-05-05T09:47:35.405Z,975.99
2019-05-05T09:48:35.393Z,976.02
2019-05-05T09:49:35.401Z,976.02
2019-05-05T09:50:35.398Z,976.04
2019-05-05T09:51:35.430Z,976.07
2019-05-05T09:52:35.401Z,976.05
2019-05-05T09:53:35.394Z,976.04
2019-05-05T09:54:35.391Z,976.05
2019-05-05T09:55:35.463Z,976.08
2019-05-05T09:56:35.409Z,976.06
2019-05-05T09:57:35.428Z,976.08
2019-05-05T09:58:35.405Z,976.10
2019-05-05T09:59:35.412Z,976.12
2019-05-05T10:00:36.232Z,976.16
2019-05-05T10:01:35.434Z,976.16
2019-05-05T10:02:35.401Z,976.16
2019-05-05T10:03:35.908Z,976.18
2019-05-05T10:04:35.417Z,976.21
2019-05-05T10:05:35.551Z,976.16
2019-05-05T10:06:40.614Z,976.19
2019-05-05T10:07:35.507Z,976.22
2019-05-05T10:08:35.790Z,976.26
2019-05-05T10:09:36.489Z,976.23
2019-05-05T10:10:35.448Z,976.27
2019-05-05T10:11:35.697Z,976.30
2019-05-05T10:12:35.411Z,976.28
2019-05-05T10:13:36.098Z,976.28
2019-05-05T10:14:35.417Z,976.25
2019-05-05T10:15:36.225Z,976.29
2019-05-05T10:16:35.442Z,976.29
2019-05-05T10:17:35.419Z,976.27
2019-05-05T10:18:35.963Z,976.28
2019-05-05T10:19:35.422Z,976.26
2019-05-05T10:20:35.444Z,976.27
2019-05-05T10:21:35.418Z,976.26
2019-05-05T10:22:35.419Z,976.28
2019-05-05T10:23:35.449Z,976.21
2019-05-05T10:24:35.432Z,976.20
2019-05-05T10:25:35.426Z,976.20
2019-05-05T10:26:35.461Z,976.23
2019-05-05T10:27:44.953Z,976.22
2019-05-05T10:28:38.096Z,976.23
2019-05-05T10:29:35.422Z,976.17
2019-05-05T10:30:35.425Z,976.16
2019-05-05T10:31:35.455Z,976.15
2019-05-05T10:32:35.429Z,976.11
2019-05-05T10:33:36.420Z,976.17
2019-05-05T10:34:35.435Z,976.16
2019-05-05T10:35:35.433Z,976.14
2019-05-05T10:36:35.461Z,976.15
2019-05-05T10:37:35.438Z,976.19
2019-05-05T10:38:35.440Z,976.22
2019-05-05T10:39:35.461Z,976.15
2019-05-05T10:40:35.447Z,976.17
2019-05-05T10:41:35.478Z,976.20
2019-05-05T10:42:36.233Z,976.17
2019-05-05T10:43:35.469Z,976.23
2019-05-05T10:44:35.450Z,976.28
2019-05-05T10:45:35.475Z,976.26
2019-05-05T10:46:35.462Z,976.24
2019-05-05T10:47:35.488Z,976.18
2019-05-05T10:48:35.466Z,976.24
2019-05-05T10:49:35.467Z,976.19
2019-05-05T10:50:35.476Z,976.12
2019-05-05T10:51:35.487Z,976.16
2019-05-05T10:52:35.519Z,976.12
2019-05-05T10:53:35.486Z,976.13
2019-05-05T10:54:44.161Z,976.10
2019-05-05T10:55:35.503Z,976.10
2019-05-05T10:56:35.502Z,976.02
2019-05-05T10:57:35.536Z,976.05
2019-05-05T10:58:35.515Z,975.95
2019-05-05T10:59:35.550Z,975.96
2019-05-05T11:00:35.526Z,975.94
2019-05-05T11:01:35.530Z,975.92
2019-05-05T11:02:35.655Z,975.97
2019-05-05T11:03:35.570Z,975.96
2019-05-05T11:04:35.569Z,975.98
2019-05-05T11:05:35.550Z,975.97
2019-05-05T11:06:35.555Z,976.04
2019-05-05T11:07:35.602Z,976.02
2019-05-05T11:08:35.578Z,976.00
2019-05-05T11:09:35.599Z,976.05
2019-05-05T11:10:35.578Z,976.07
2019-05-05T11:11:35.585Z,976.04
2019-05-05T11:12:36.258Z,976.06
2019-05-05T11:13:35.615Z,976.06
2019-05-05T11:14:35.586Z,976.06
2019-05-05T11:15:35.597Z,976.05
2019-05-05T11:16:35.595Z,976.01
2019-05-05T11:17:35.598Z,976.02
2019-05-05T11:18:35.632Z,976.04
2019-05-05T11:19:35.602Z,976.00
2019-05-05T11:20:35.606Z,976.03
2019-05-05T11:21:35.610Z,976.05
2019-05-05T11:22:35.631Z,976.08
2019-05-05T11:23:35.639Z,976.03
2019-05-05T11:24:35.619Z,976.04
2019-05-05T11:25:35.614Z,976.04
2019-05-05T11:26:35.615Z,976.03
2019-05-05T11:27:35.615Z,976.08
2019-05-05T11:28:35.645Z,976.07
2019-05-05T11:29:35.652Z,976.08
2019-05-05T11:30:35.621Z,976.04
2019-05-05T11:31:35.616Z,976.07
2019-05-05T11:32:35.619Z,976.07
2019-05-05T11:33:35.651Z,976.04
2019-05-05T11:34:35.627Z,976.00
2019-05-05T11:35:35.631Z,976.07
2019-05-05T11:36:35.619Z,976.05
2019-05-05T11:37:35.628Z,976.07
2019-05-05T11:38:35.655Z,976.05
2019-05-05T11:39:35.633Z,976.09
2019-05-05T11:40:35.699Z,976.08
2019-05-05T11:41:35.624Z,976.15
2019-05-05T11:42:36.247Z,976.11
2019-05-05T11:43:35.628Z,976.14
2019-05-05T11:44:35.660Z,976.09
2019-05-05T11:45:35.633Z,976.17
2019-05-05T11:46:35.631Z,976.13
2019-05-05T11:47:35.630Z,976.11
2019-05-05T11:48:35.624Z,976.13
2019-05-05T11:49:35.655Z,976.17
2019-05-05T11:50:35.836Z,976.14
2019-05-05T11:51:35.640Z,976.12
2019-05-05T11:52:35.636Z,976.19
2019-05-05T11:53:35.633Z,976.15
2019-05-05T11:54:35.667Z,976.15
2019-05-05T11:55:35.638Z,976.19
2019-05-05T11:56:35.639Z,976.16
2019-05-05T11:57:35.639Z,976.19
2019-05-05T11:58:35.641Z,976.23
2019-05-05T11:59:35.672Z,976.24
2019-05-05T12:00:35.645Z,976.26
2019-05-05T12:01:35.640Z,976.22
2019-05-05T12:02:35.648Z,976.23
2019-05-05T12:03:37.776Z,976.21
2019-05-05T12:04:35.673Z,976.20
2019-05-05T12:05:35.649Z,976.20
2019-05-05T12:06:35.655Z,976.21
2019-05-05T12:07:35.664Z,976.19
2019-05-05T12:08:35.654Z,976.18
2019-05-05T12:09:35.686Z,976.12
2019-05-05T12:10:35.656Z,976.12
2019-05-05T12:11:35.663Z,976.13
2019-05-05T12:12:36.254Z,976.16
2019-05-05T12:13:35.665Z,976.18
2019-05-05T12:14:35.686Z,976.12
2019-05-05T12:15:35.664Z,976.18
2019-05-05T12:16:35.671Z,976.17
2019-05-05T12:17:35.668Z,976.16
2019-05-05T12:18:35.674Z,976.23
2019-05-05T12:19:35.699Z,976.22
2019-05-05T12:20:35.673Z,976.20
2019-05-05T12:21:35.701Z,976.21
2019-05-05T12:22:35.673Z,976.22
2019-05-05T12:23:35.677Z,976.24
2019-05-05T12:24:35.673Z,976.21
2019-05-05T12:25:35.707Z,976.26
2019-05-05T12:26:35.682Z,976.23
2019-05-05T12:27:35.679Z,976.31
2019-05-05T12:28:35.686Z,976.29